sensor_id;sensor_type;location;lat;lon;timestamp;P1;durP1;ratioP1;P2;durP2;ratioP2
22470;SDS011;11402;51.374;6.594;2023-03-20T00:00:06;15.02;;;9.35;;
22470;SDS011;11402;51.374;6.594;2023-03-20T00:02:40;14.18;;;10.23;;
22470;SDS011;11402;51.374;6.594;2023-03-20T00:05:39;16.33;;;10.45;;
22470;SDS011;11402;51.374;6.594;2023-03-20T00:07:57;14.13;;;9.77;;
22470;SDS011;11402;51.374;6.594;2023-03-20T00:10:33;14.88;;;10.00;;
22470;SDS011;11402;51.374;6.594;2023-03-20T00:13:01;16.98;;;10.98;;
22470;SDS011;11402;51.374;6.594;2023-03-20T00:15:36;14.15;;;9.93;;
22470;SDS011;11402;51.374;6.594;2023-03-20T00:18:11;14.07;;;10.07;;
22470;SDS011;11402;51.374;6.594;2023-03-20T00:20:43;13.02;;;10.02;;
22470;SDS011;11402;51.374;6.594;2023-03-20T00:23:10;13.82;;;10.07;;
22470;SDS011;11402;51.374;6.594;2023-03-20T00:25:36;14.27;;;10.38;;
22470;SDS011;11402;51.374;6.594;2023-03-20T00:28:21;14.88;;;10.57;;
22470;SDS011;11402;51.374;6.594;2023-03-20T00:31:01;13.73;;;9.30;;
22470;SDS011;11402;51.374;6.594;2023-03-20T00:33:26;13.73;;;9.55;;
22470;SDS011;11402;51.374;6.594;2023-03-20T00:35:52;14.30;;;9.45;;
22470;SDS011;11402;51.374;6.594;2023-03-20T00:38:17;14.70;;;9.65;;
22470;SDS011;11402;51.374;6.594;2023-03-20T00:40:43;15.23;;;9.65;;
22470;SDS011;11402;51.374;6.594;2023-03-20T00:43:09;13.70;;;9.50;;
22470;SDS011;11402;51.374;6.594;2023-03-20T00:45:37;15.13;;;9.98;;
22470;SDS011;11402;51.374;6.594;2023-03-20T00:48:03;13.70;;;9.88;;
22470;SDS011;11402;51.374;6.594;2023-03-20T00:50:30;13.05;;;10.45;;
22470;SDS011;11402;51.374;6.594;2023-03-20T00:52:56;15.50;;;10.50;;
22470;SDS011;11402;51.374;6.594;2023-03-20T00:55:24;15.77;;;10.45;;
22470;SDS011;11402;51.374;6.594;2023-03-20T00:57:52;14.45;;;10.77;;
22470;SDS011;11402;51.374;6.594;2023-03-20T01:00:22;15.57;;;10.82;;
22470;SDS011;11402;51.374;6.594;2023-03-20T01:02:48;14.27;;;10.60;;
22470;SDS011;11402;51.374;6.594;2023-03-20T01:05:15;16.80;;;10.63;;
22470;SDS011;11402;51.374;6.594;2023-03-20T01:07:41;15.48;;;11.00;;
22470;SDS011;11402;51.374;6.594;2023-03-20T01:10:08;16.65;;;10.85;;
22470;SDS011;11402;51.374;6.594;2023-03-20T01:12:36;16.42;;;11.07;;
22470;SDS011;11402;51.374;6.594;2023-03-20T01:15:19;16.75;;;10.93;;
22470;SDS011;11402;51.374;6.594;2023-03-20T01:17:46;18.20;;;10.30;;
22470;SDS011;11402;51.374;6.594;2023-03-20T01:20:13;14.25;;;10.30;;
22470;SDS011;11402;51.374;6.594;2023-03-20T01:22:41;13.32;;;9.27;;
22470;SDS011;11402;51.374;6.594;2023-03-20T01:25:07;14.02;;;9.85;;
22470;SDS011;11402;51.374;6.594;2023-03-20T01:27:32;16.35;;;10.27;;
22470;SDS011;11402;51.374;6.594;2023-03-20T01:29:58;14.50;;;10.70;;
22470;SDS011;11402;51.374;6.594;2023-03-20T01:32:23;13.88;;;10.23;;
22470;SDS011;11402;51.374;6.594;2023-03-20T01:34:49;14.02;;;10.65;;
22470;SDS011;11402;51.374;6.594;2023-03-20T01:37:25;12.88;;;9.55;;
22470;SDS011;11402;51.374;6.594;2023-03-20T01:39:51;14.27;;;10.35;;
22470;SDS011;11402;51.374;6.594;2023-03-20T01:42:17;13.30;;;9.73;;
22470;SDS011;11402;51.374;6.594;2023-03-20T01:44:43;12.93;;;9.98;;
22470;SDS011;11402;51.374;6.594;2023-03-20T01:47:21;14.30;;;9.70;;
22470;SDS011;11402;51.374;6.594;2023-03-20T01:52:47;15.10;;;9.93;;
22470;SDS011;11402;51.374;6.594;2023-03-20T01:55:16;15.32;;;9.32;;
22470;SDS011;11402;51.374;6.594;2023-03-20T01:57:42;12.98;;;8.60;;
22470;SDS011;11402;51.374;6.594;2023-03-20T02:00:09;12.85;;;9.38;;
22470;SDS011;11402;51.374;6.594;2023-03-20T02:02:37;13.18;;;9.15;;
22470;SDS011;11402;51.374;6.594;2023-03-20T02:05:06;13.75;;;9.82;;
22470;SDS011;11402;51.374;6.594;2023-03-20T02:07:35;14.93;;;9.50;;
22470;SDS011;11402;51.374;6.594;2023-03-20T02:10:03;12.93;;;9.50;;
22470;SDS011;11402;51.374;6.594;2023-03-20T02:12:32;14.13;;;8.70;;
22470;SDS011;11402;51.374;6.594;2023-03-20T02:15:00;14.25;;;8.93;;
22470;SDS011;11402;51.374;6.594;2023-03-20T02:17:27;13.80;;;9.07;;
22470;SDS011;11402;51.374;6.594;2023-03-20T02:25:21;14.60;;;10.00;;
22470;SDS011;11402;51.374;6.594;2023-03-20T02:30:55;15.43;;;10.48;;
22470;SDS011;11402;51.374;6.594;2023-03-20T02:39:30;15.45;;;10.57;;
22470;SDS011;11402;51.374;6.594;2023-03-20T02:44:32;17.92;;;10.90;;
22470;SDS011;11402;51.374;6.594;2023-03-20T02:47:26;17.42;;;11.85;;
22470;SDS011;11402;51.374;6.594;2023-03-20T02:52:48;16.67;;;11.77;;
22470;SDS011;11402;51.374;6.594;2023-03-20T02:56:28;18.48;;;11.13;;
22470;SDS011;11402;51.374;6.594;2023-03-20T02:58:29;17.55;;;12.18;;
22470;SDS011;11402;51.374;6.594;2023-03-20T03:04:10;17.35;;;11.40;;
22470;SDS011;11402;51.374;6.594;2023-03-20T03:06:42;17.98;;;11.15;;
22470;SDS011;11402;51.374;6.594;2023-03-20T03:11:44;19.13;;;12.07;;
22470;SDS011;11402;51.374;6.594;2023-03-20T03:14:28;19.77;;;11.93;;
22470;SDS011;11402;51.374;6.594;2023-03-20T03:17:10;16.67;;;11.65;;
22470;SDS011;11402;51.374;6.594;2023-03-20T03:19:38;17.95;;;12.15;;
22470;SDS011;11402;51.374;6.594;2023-03-20T03:22:07;18.42;;;12.27;;
22470;SDS011;11402;51.374;6.594;2023-03-20T03:24:34;19.42;;;12.75;;
22470;SDS011;11402;51.374;6.594;2023-03-20T03:27:04;18.08;;;12.52;;
22470;SDS011;11402;51.374;6.594;2023-03-20T03:29:37;17.08;;;12.25;;
22470;SDS011;11402;51.374;6.594;2023-03-20T03:32:04;19.70;;;12.75;;
22470;SDS011;11402;51.374;6.594;2023-03-20T03:34:31;21.00;;;13.40;;
22470;SDS011;11402;51.374;6.594;2023-03-20T03:37:01;21.08;;;13.68;;
22470;SDS011;11402;51.374;6.594;2023-03-20T03:39:39;20.80;;;13.60;;
22470;SDS011;11402;51.374;6.594;2023-03-20T03:44:56;22.33;;;14.25;;
22470;SDS011;11402;51.374;6.594;2023-03-20T03:47:52;22.00;;;14.18;;
22470;SDS011;11402;51.374;6.594;2023-03-20T03:50:22;23.85;;;14.38;;
22470;SDS011;11402;51.374;6.594;2023-03-20T03:52:53;24.27;;;15.85;;
22470;SDS011;11402;51.374;6.594;2023-03-20T03:55:24;26.90;;;15.73;;
22470;SDS011;11402;51.374;6.594;2023-03-20T03:58:13;25.52;;;15.82;;
22470;SDS011;11402;51.374;6.594;2023-03-20T04:00:45;27.73;;;16.92;;
22470;SDS011;11402;51.374;6.594;2023-03-20T04:03:14;24.48;;;15.40;;
22470;SDS011;11402;51.374;6.594;2023-03-20T04:05:42;27.35;;;16.83;;
22470;SDS011;11402;51.374;6.594;2023-03-20T04:08:10;28.40;;;16.33;;
22470;SDS011;11402;51.374;6.594;2023-03-20T04:10:36;31.70;;;17.08;;
22470;SDS011;11402;51.374;6.594;2023-03-20T04:13:01;28.33;;;16.52;;
22470;SDS011;11402;51.374;6.594;2023-03-20T04:15:27;29.40;;;17.02;;
22470;SDS011;11402;51.374;6.594;2023-03-20T04:17:53;30.63;;;17.33;;
22470;SDS011;11402;51.374;6.594;2023-03-20T04:20:18;33.83;;;17.40;;
22470;SDS011;11402;51.374;6.594;2023-03-20T04:22:44;27.25;;;17.42;;
22470;SDS011;11402;51.374;6.594;2023-03-20T04:25:15;29.30;;;17.85;;
22470;SDS011;11402;51.374;6.594;2023-03-20T04:27:43;23.27;;;13.27;;
22470;SDS011;11402;51.374;6.594;2023-03-20T04:30:08;29.77;;;17.65;;
22470;SDS011;11402;51.374;6.594;2023-03-20T04:32:35;26.27;;;16.73;;
22470;SDS011;11402;51.374;6.594;2023-03-20T04:35:00;30.67;;;16.95;;
22470;SDS011;11402;51.374;6.594;2023-03-20T04:37:26;31.33;;;18.27;;
22470;SDS011;11402;51.374;6.594;2023-03-20T04:39:51;33.25;;;17.58;;
22470;SDS011;11402;51.374;6.594;2023-03-20T04:42:17;27.63;;;17.35;;
22470;SDS011;11402;51.374;6.594;2023-03-20T04:44:43;30.67;;;17.55;;
22470;SDS011;11402;51.374;6.594;2023-03-20T04:47:08;35.08;;;18.23;;
22470;SDS011;11402;51.374;6.594;2023-03-20T04:49:34;27.73;;;16.80;;
22470;SDS011;11402;51.374;6.594;2023-03-20T04:51:59;26.50;;;16.15;;
22470;SDS011;11402;51.374;6.594;2023-03-20T04:54:25;24.73;;;15.20;;
22470;SDS011;11402;51.374;6.594;2023-03-20T04:56:51;25.48;;;15.02;;
22470;SDS011;11402;51.374;6.594;2023-03-20T04:59:16;23.98;;;14.88;;
22470;SDS011;11402;51.374;6.594;2023-03-20T05:01:42;24.85;;;15.85;;
22470;SDS011;11402;51.374;6.594;2023-03-20T05:04:07;24.63;;;15.07;;
22470;SDS011;11402;51.374;6.594;2023-03-20T05:06:33;27.77;;;15.45;;
22470;SDS011;11402;51.374;6.594;2023-03-20T05:08:59;23.63;;;14.77;;
22470;SDS011;11402;51.374;6.594;2023-03-20T05:11:25;24.23;;;14.25;;
22470;SDS011;11402;51.374;6.594;2023-03-20T05:13:51;22.75;;;12.85;;
22470;SDS011;11402;51.374;6.594;2023-03-20T05:16:17;21.70;;;12.52;;
22470;SDS011;11402;51.374;6.594;2023-03-20T05:18:43;19.70;;;12.65;;
22470;SDS011;11402;51.374;6.594;2023-03-20T05:21:08;21.00;;;12.45;;
22470;SDS011;11402;51.374;6.594;2023-03-20T05:23:34;20.45;;;12.60;;
22470;SDS011;11402;51.374;6.594;2023-03-20T05:26:00;19.95;;;11.98;;
22470;SDS011;11402;51.374;6.594;2023-03-20T05:28:26;20.30;;;12.05;;
22470;SDS011;11402;51.374;6.594;2023-03-20T05:30:52;19.67;;;11.95;;
22470;SDS011;11402;51.374;6.594;2023-03-20T05:33:18;18.15;;;11.45;;
22470;SDS011;11402;51.374;6.594;2023-03-20T05:35:43;16.00;;;10.82;;
22470;SDS011;11402;51.374;6.594;2023-03-20T05:38:09;20.45;;;11.75;;
22470;SDS011;11402;51.374;6.594;2023-03-20T05:40:35;19.25;;;11.98;;
22470;SDS011;11402;51.374;6.594;2023-03-20T05:43:00;17.27;;;11.55;;
22470;SDS011;11402;51.374;6.594;2023-03-20T05:45:26;18.10;;;12.07;;
22470;SDS011;11402;51.374;6.594;2023-03-20T05:47:52;17.42;;;11.18;;
22470;SDS011;11402;51.374;6.594;2023-03-20T05:50:18;16.70;;;11.52;;
22470;SDS011;11402;51.374;6.594;2023-03-20T05:52:46;18.33;;;11.52;;
22470;SDS011;11402;51.374;6.594;2023-03-20T05:55:13;15.10;;;10.25;;
22470;SDS011;11402;51.374;6.594;2023-03-20T05:57:39;20.95;;;11.50;;
22470;SDS011;11402;51.374;6.594;2023-03-20T06:00:05;18.80;;;10.18;;
22470;SDS011;11402;51.374;6.594;2023-03-20T06:02:32;17.45;;;10.27;;
22470;SDS011;11402;51.374;6.594;2023-03-20T06:04:58;18.02;;;10.25;;
22470;SDS011;11402;51.374;6.594;2023-03-20T06:07:24;16.50;;;10.38;;
22470;SDS011;11402;51.374;6.594;2023-03-20T06:09:49;16.55;;;9.77;;
22470;SDS011;11402;51.374;6.594;2023-03-20T06:12:16;16.63;;;9.80;;
22470;SDS011;11402;51.374;6.594;2023-03-20T06:14:42;16.80;;;9.40;;
22470;SDS011;11402;51.374;6.594;2023-03-20T06:17:08;16.10;;;9.45;;
22470;SDS011;11402;51.374;6.594;2023-03-20T06:19:33;20.92;;;9.95;;
22470;SDS011;11402;51.374;6.594;2023-03-20T06:21:59;17.73;;;9.32;;
22470;SDS011;11402;51.374;6.594;2023-03-20T06:24:25;17.15;;;10.15;;
22470;SDS011;11402;51.374;6.594;2023-03-20T06:26:51;17.35;;;10.27;;
22470;SDS011;11402;51.374;6.594;2023-03-20T06:29:16;18.80;;;9.52;;
22470;SDS011;11402;51.374;6.594;2023-03-20T06:31:42;19.35;;;9.98;;
22470;SDS011;11402;51.374;6.594;2023-03-20T06:34:07;20.13;;;9.80;;
22470;SDS011;11402;51.374;6.594;2023-03-20T06:36:33;15.32;;;9.77;;
22470;SDS011;11402;51.374;6.594;2023-03-20T06:38:59;19.10;;;9.68;;
22470;SDS011;11402;51.374;6.594;2023-03-20T06:41:24;16.20;;;10.00;;
22470;SDS011;11402;51.374;6.594;2023-03-20T06:43:50;18.08;;;9.60;;
22470;SDS011;11402;51.374;6.594;2023-03-20T06:46:15;17.80;;;10.23;;
22470;SDS011;11402;51.374;6.594;2023-03-20T06:48:41;19.85;;;10.52;;
22470;SDS011;11402;51.374;6.594;2023-03-20T06:51:06;19.83;;;10.45;;
22470;SDS011;11402;51.374;6.594;2023-03-20T06:53:32;19.38;;;10.13;;
22470;SDS011;11402;51.374;6.594;2023-03-20T06:55:57;19.92;;;10.35;;
22470;SDS011;11402;51.374;6.594;2023-03-20T06:58:23;15.77;;;9.98;;
22470;SDS011;11402;51.374;6.594;2023-03-20T07:00:49;18.70;;;10.48;;
22470;SDS011;11402;51.374;6.594;2023-03-20T07:03:15;21.10;;;10.35;;
22470;SDS011;11402;51.374;6.594;2023-03-20T07:05:41;18.95;;;10.95;;
22470;SDS011;11402;51.374;6.594;2023-03-20T07:08:07;21.90;;;10.63;;
22470;SDS011;11402;51.374;6.594;2023-03-20T07:10:33;17.52;;;10.27;;
22470;SDS011;11402;51.374;6.594;2023-03-20T07:12:59;19.52;;;10.75;;
22470;SDS011;11402;51.374;6.594;2023-03-20T07:15:25;20.85;;;11.23;;
22470;SDS011;11402;51.374;6.594;2023-03-20T07:17:51;21.08;;;10.52;;
22470;SDS011;11402;51.374;6.594;2023-03-20T07:20:17;22.00;;;11.65;;
22470;SDS011;11402;51.374;6.594;2023-03-20T07:22:43;21.20;;;11.52;;
22470;SDS011;11402;51.374;6.594;2023-03-20T07:25:09;22.42;;;11.57;;
22470;SDS011;11402;51.374;6.594;2023-03-20T07:27:35;21.40;;;10.63;;
22470;SDS011;11402;51.374;6.594;2023-03-20T07:30:02;20.20;;;11.63;;
22470;SDS011;11402;51.374;6.594;2023-03-20T07:32:29;20.60;;;11.18;;
22470;SDS011;11402;51.374;6.594;2023-03-20T07:34:54;30.50;;;11.73;;
22470;SDS011;11402;51.374;6.594;2023-03-20T07:37:20;23.02;;;12.07;;
22470;SDS011;11402;51.374;6.594;2023-03-20T07:39:45;20.13;;;11.35;;
22470;SDS011;11402;51.374;6.594;2023-03-20T07:42:11;21.65;;;11.70;;
22470;SDS011;11402;51.374;6.594;2023-03-20T07:44:37;22.20;;;12.48;;
22470;SDS011;11402;51.374;6.594;2023-03-20T07:47:03;21.25;;;11.60;;
22470;SDS011;11402;51.374;6.594;2023-03-20T07:49:30;20.27;;;12.57;;
22470;SDS011;11402;51.374;6.594;2023-03-20T07:51:56;24.27;;;12.57;;
22470;SDS011;11402;51.374;6.594;2023-03-20T07:54:22;22.77;;;12.05;;
22470;SDS011;11402;51.374;6.594;2023-03-20T07:56:48;24.50;;;12.20;;
22470;SDS011;11402;51.374;6.594;2023-03-20T07:59:14;23.20;;;11.70;;
22470;SDS011;11402;51.374;6.594;2023-03-20T08:01:40;20.30;;;11.77;;
22470;SDS011;11402;51.374;6.594;2023-03-20T08:04:06;18.25;;;11.15;;
22470;SDS011;11402;51.374;6.594;2023-03-20T08:06:31;18.33;;;10.38;;
22470;SDS011;11402;51.374;6.594;2023-03-20T08:08:57;25.08;;;11.18;;
22470;SDS011;11402;51.374;6.594;2023-03-20T08:11:23;23.27;;;10.57;;
22470;SDS011;11402;51.374;6.594;2023-03-20T08:13:48;18.70;;;10.52;;
22470;SDS011;11402;51.374;6.594;2023-03-20T08:16:14;16.77;;;9.77;;
22470;SDS011;11402;51.374;6.594;2023-03-20T08:18:40;17.55;;;10.02;;
22470;SDS011;11402;51.374;6.594;2023-03-20T08:21:06;16.33;;;8.88;;
22470;SDS011;11402;51.374;6.594;2023-03-20T08:23:32;95.35;;;67.85;;
22470;SDS011;11402;51.374;6.594;2023-03-20T08:25:58;15.40;;;8.68;;
22470;SDS011;11402;51.374;6.594;2023-03-20T08:28:24;18.00;;;8.27;;
22470;SDS011;11402;51.374;6.594;2023-03-20T08:30:49;19.35;;;7.85;;
22470;SDS011;11402;51.374;6.594;2023-03-20T08:33:16;14.07;;;7.75;;
22470;SDS011;11402;51.374;6.594;2023-03-20T08:35:42;18.35;;;7.97;;
22470;SDS011;11402;51.374;6.594;2023-03-20T08:38:10;15.73;;;7.50;;
22470;SDS011;11402;51.374;6.594;2023-03-20T08:40:39;14.60;;;6.38;;
22470;SDS011;11402;51.374;6.594;2023-03-20T08:43:05;16.60;;;6.20;;
22470;SDS011;11402;51.374;6.594;2023-03-20T08:45:31;14.30;;;6.63;;
22470;SDS011;11402;51.374;6.594;2023-03-20T08:47:57;12.48;;;5.63;;
22470;SDS011;11402;51.374;6.594;2023-03-20T08:50:23;14.40;;;6.40;;
22470;SDS011;11402;51.374;6.594;2023-03-20T08:52:48;14.00;;;5.95;;
22470;SDS011;11402;51.374;6.594;2023-03-20T08:55:14;10.60;;;5.53;;
22470;SDS011;11402;51.374;6.594;2023-03-20T08:57:40;14.20;;;5.20;;
22470;SDS011;11402;51.374;6.594;2023-03-20T09:00:07;14.05;;;5.55;;
22470;SDS011;11402;51.374;6.594;2023-03-20T09:02:34;10.02;;;5.68;;
22470;SDS011;11402;51.374;6.594;2023-03-20T09:05:00;10.50;;;5.03;;
22470;SDS011;11402;51.374;6.594;2023-03-20T09:07:25;9.85;;;5.05;;
22470;SDS011;11402;51.374;6.594;2023-03-20T09:09:51;10.02;;;4.80;;
22470;SDS011;11402;51.374;6.594;2023-03-20T09:12:16;11.88;;;4.95;;
22470;SDS011;11402;51.374;6.594;2023-03-20T09:14:42;10.50;;;4.15;;
22470;SDS011;11402;51.374;6.594;2023-03-20T09:17:08;11.75;;;4.82;;
22470;SDS011;11402;51.374;6.594;2023-03-20T09:19:34;7.63;;;3.90;;
22470;SDS011;11402;51.374;6.594;2023-03-20T09:22:01;12.77;;;3.85;;
22470;SDS011;11402;51.374;6.594;2023-03-20T09:24:27;8.10;;;4.07;;
22470;SDS011;11402;51.374;6.594;2023-03-20T09:26:53;6.63;;;3.30;;
22470;SDS011;11402;51.374;6.594;2023-03-20T09:29:19;10.48;;;3.63;;
22470;SDS011;11402;51.374;6.594;2023-03-20T09:31:44;10.00;;;3.83;;
22470;SDS011;11402;51.374;6.594;2023-03-20T09:34:10;8.63;;;3.58;;
22470;SDS011;11402;51.374;6.594;2023-03-20T09:36:36;8.90;;;3.97;;
22470;SDS011;11402;51.374;6.594;2023-03-20T09:39:01;11.07;;;3.83;;
22470;SDS011;11402;51.374;6.594;2023-03-20T09:41:28;9.90;;;4.32;;
22470;SDS011;11402;51.374;6.594;2023-03-20T09:44:07;11.57;;;3.78;;
22470;SDS011;11402;51.374;6.594;2023-03-20T09:54:52;9.18;;;3.90;;
22470;SDS011;11402;51.374;6.594;2023-03-20T09:57:23;8.65;;;3.70;;
22470;SDS011;11402;51.374;6.594;2023-03-20T09:59:58;11.68;;;3.70;;
22470;SDS011;11402;51.374;6.594;2023-03-20T10:02:34;10.52;;;3.75;;
22470;SDS011;11402;51.374;6.594;2023-03-20T10:05:25;6.18;;;3.25;;
22470;SDS011;11402;51.374;6.594;2023-03-20T10:08:00;6.22;;;2.65;;
22470;SDS011;11402;51.374;6.594;2023-03-20T10:10:31;7.85;;;2.70;;
22470;SDS011;11402;51.374;6.594;2023-03-20T10:16:36;9.38;;;3.30;;
22470;SDS011;11402;51.374;6.594;2023-03-20T10:19:01;9.20;;;2.88;;
22470;SDS011;11402;51.374;6.594;2023-03-20T10:21:41;7.38;;;2.53;;
22470;SDS011;11402;51.374;6.594;2023-03-20T10:24:15;9.77;;;2.72;;
22470;SDS011;11402;51.374;6.594;2023-03-20T10:26:45;7.40;;;2.38;;
22470;SDS011;11402;51.374;6.594;2023-03-20T10:29:18;9.27;;;3.20;;
22470;SDS011;11402;51.374;6.594;2023-03-20T10:32:21;12.38;;;3.03;;
22470;SDS011;11402;51.374;6.594;2023-03-20T10:37:38;7.45;;;2.70;;
22470;SDS011;11402;51.374;6.594;2023-03-20T10:40:26;8.95;;;3.17;;
22470;SDS011;11402;51.374;6.594;2023-03-20T10:42:57;8.15;;;2.78;;
22470;SDS011;11402;51.374;6.594;2023-03-20T10:45:32;6.78;;;2.38;;
22470;SDS011;11402;51.374;6.594;2023-03-20T10:48:16;10.82;;;2.22;;
22470;SDS011;11402;51.374;6.594;2023-03-20T10:50:46;6.95;;;2.45;;
22470;SDS011;11402;51.374;6.594;2023-03-20T10:53:30;7.65;;;2.78;;
22470;SDS011;11402;51.374;6.594;2023-03-20T10:56:04;5.88;;;2.70;;
22470;SDS011;11402;51.374;6.594;2023-03-20T10:58:34;7.35;;;2.28;;
22470;SDS011;11402;51.374;6.594;2023-03-20T11:01:04;12.57;;;2.40;;
22470;SDS011;11402;51.374;6.594;2023-03-20T11:03:30;7.90;;;2.17;;
22470;SDS011;11402;51.374;6.594;2023-03-20T11:06:09;8.63;;;2.40;;
22470;SDS011;11402;51.374;6.594;2023-03-20T11:08:48;6.40;;;2.33;;
22470;SDS011;11402;51.374;6.594;2023-03-20T11:11:26;5.47;;;2.50;;
22470;SDS011;11402;51.374;6.594;2023-03-20T11:13:57;7.90;;;2.90;;
22470;SDS011;11402;51.374;6.594;2023-03-20T11:16:34;7.80;;;2.80;;
22470;SDS011;11402;51.374;6.594;2023-03-20T11:19:07;7.38;;;2.55;;
22470;SDS011;11402;51.374;6.594;2023-03-20T11:21:36;6.03;;;2.10;;
22470;SDS011;11402;51.374;6.594;2023-03-20T11:24:21;9.63;;;2.70;;
22470;SDS011;11402;51.374;6.594;2023-03-20T11:27:12;9.80;;;2.58;;
22470;SDS011;11402;51.374;6.594;2023-03-20T11:29:41;8.80;;;3.00;;
22470;SDS011;11402;51.374;6.594;2023-03-20T11:34:56;6.80;;;2.38;;
22470;SDS011;11402;51.374;6.594;2023-03-20T11:37:33;6.72;;;2.00;;
22470;SDS011;11402;51.374;6.594;2023-03-20T11:40:45;6.30;;;1.80;;
22470;SDS011;11402;51.374;6.594;2023-03-20T11:42:52;5.90;;;1.95;;
22470;SDS011;11402;51.374;6.594;2023-03-20T11:45:18;6.75;;;2.33;;
22470;SDS011;11402;51.374;6.594;2023-03-20T11:47:47;6.07;;;2.05;;
22470;SDS011;11402;51.374;6.594;2023-03-20T11:50:24;8.00;;;2.00;;
22470;SDS011;11402;51.374;6.594;2023-03-20T11:52:50;6.18;;;2.22;;
22470;SDS011;11402;51.374;6.594;2023-03-20T11:58:00;4.07;;;2.08;;
22470;SDS011;11402;51.374;6.594;2023-03-20T12:00:36;10.10;;;2.97;;
22470;SDS011;11402;51.374;6.594;2023-03-20T12:03:20;10.40;;;3.20;;
22470;SDS011;11402;51.374;6.594;2023-03-20T12:06:26;8.40;;;3.30;;
22470;SDS011;11402;51.374;6.594;2023-03-20T12:09:02;11.45;;;3.60;;
22470;SDS011;11402;51.374;6.594;2023-03-20T12:12:32;10.80;;;4.07;;
22470;SDS011;11402;51.374;6.594;2023-03-20T12:14:46;12.68;;;3.80;;
22470;SDS011;11402;51.374;6.594;2023-03-20T12:17:25;10.65;;;3.90;;
22470;SDS011;11402;51.374;6.594;2023-03-20T12:22:38;10.68;;;4.50;;
22470;SDS011;11402;51.374;6.594;2023-03-20T12:27:46;11.50;;;4.53;;
22470;SDS011;11402;51.374;6.594;2023-03-20T12:30:26;12.80;;;4.85;;
22470;SDS011;11402;51.374;6.594;2023-03-20T12:36:02;10.70;;;4.25;;
22470;SDS011;11402;51.374;6.594;2023-03-20T12:38:32;9.93;;;4.10;;
22470;SDS011;11402;51.374;6.594;2023-03-20T12:43:29;8.05;;;4.13;;
22470;SDS011;11402;51.374;6.594;2023-03-20T12:46:16;9.32;;;3.55;;
22470;SDS011;11402;51.374;6.594;2023-03-20T12:49:13;10.27;;;4.10;;
22470;SDS011;11402;51.374;6.594;2023-03-20T13:03:03;8.82;;;3.88;;
22470;SDS011;11402;51.374;6.594;2023-03-20T13:14:26;9.30;;;3.50;;
22470;SDS011;11402;51.374;6.594;2023-03-20T13:16:32;7.20;;;2.90;;
22470;SDS011;11402;51.374;6.594;2023-03-20T13:19:21;12.60;;;3.55;;
22470;SDS011;11402;51.374;6.594;2023-03-20T13:27:05;8.45;;;3.10;;
22470;SDS011;11402;51.374;6.594;2023-03-20T13:37:39;7.55;;;2.65;;
22470;SDS011;11402;51.374;6.594;2023-03-20T13:40:21;9.02;;;2.88;;
22470;SDS011;11402;51.374;6.594;2023-03-20T13:42:53;9.88;;;2.83;;
22470;SDS011;11402;51.374;6.594;2023-03-20T13:45:33;11.18;;;3.05;;
22470;SDS011;11402;51.374;6.594;2023-03-20T13:48:18;10.50;;;3.25;;
22470;SDS011;11402;51.374;6.594;2023-03-20T13:54:02;8.13;;;2.80;;
22470;SDS011;11402;51.374;6.594;2023-03-20T13:59:17;9.48;;;2.88;;
22470;SDS011;11402;51.374;6.594;2023-03-20T14:01:55;9.65;;;2.92;;
22470;SDS011;11402;51.374;6.594;2023-03-20T14:04:24;8.18;;;3.05;;
22470;SDS011;11402;51.374;6.594;2023-03-20T14:06:55;14.43;;;2.78;;
22470;SDS011;11402;51.374;6.594;2023-03-20T14:09:34;11.73;;;3.17;;
22470;SDS011;11402;51.374;6.594;2023-03-20T14:12:05;9.38;;;3.10;;
22470;SDS011;11402;51.374;6.594;2023-03-20T14:14:45;10.55;;;3.45;;
22470;SDS011;11402;51.374;6.594;2023-03-20T14:17:21;11.25;;;3.72;;
22470;SDS011;11402;51.374;6.594;2023-03-20T14:19:48;12.57;;;3.47;;
22470;SDS011;11402;51.374;6.594;2023-03-20T14:22:16;10.98;;;3.70;;
22470;SDS011;11402;51.374;6.594;2023-03-20T14:24:47;12.38;;;3.58;;
22470;SDS011;11402;51.374;6.594;2023-03-20T14:27:18;9.20;;;3.65;;
22470;SDS011;11402;51.374;6.594;2023-03-20T14:29:45;9.35;;;3.35;;
22470;SDS011;11402;51.374;6.594;2023-03-20T14:35:41;12.70;;;4.00;;
22470;SDS011;11402;51.374;6.594;2023-03-20T14:37:44;11.40;;;3.35;;
22470;SDS011;11402;51.374;6.594;2023-03-20T14:40:26;8.25;;;3.70;;
22470;SDS011;11402;51.374;6.594;2023-03-20T14:42:57;18.95;;;4.90;;
22470;SDS011;11402;51.374;6.594;2023-03-20T14:48:12;14.20;;;4.05;;
22470;SDS011;11402;51.374;6.594;2023-03-20T14:51:13;16.85;;;4.00;;
22470;SDS011;11402;51.374;6.594;2023-03-20T14:56:39;14.88;;;4.00;;
22470;SDS011;11402;51.374;6.594;2023-03-20T14:59:05;14.23;;;4.03;;
22470;SDS011;11402;51.374;6.594;2023-03-20T15:06:33;10.55;;;4.35;;
22470;SDS011;11402;51.374;6.594;2023-03-20T15:09:06;13.05;;;4.25;;
22470;SDS011;11402;51.374;6.594;2023-03-20T15:11:34;11.45;;;4.10;;
22470;SDS011;11402;51.374;6.594;2023-03-20T15:14:00;13.68;;;4.03;;
22470;SDS011;11402;51.374;6.594;2023-03-20T15:16:31;9.52;;;4.13;;
22470;SDS011;11402;51.374;6.594;2023-03-20T15:18:59;10.57;;;3.70;;
22470;SDS011;11402;51.374;6.594;2023-03-20T15:21:27;10.13;;;3.70;;
22470;SDS011;11402;51.374;6.594;2023-03-20T15:23:57;13.20;;;4.13;;
22470;SDS011;11402;51.374;6.594;2023-03-20T15:26:23;12.35;;;4.05;;
22470;SDS011;11402;51.374;6.594;2023-03-20T15:28:51;8.65;;;3.47;;
22470;SDS011;11402;51.374;6.594;2023-03-20T15:31:40;11.30;;;4.03;;
22470;SDS011;11402;51.374;6.594;2023-03-20T15:34:07;9.18;;;3.65;;
22470;SDS011;11402;51.374;6.594;2023-03-20T15:36:38;13.25;;;3.88;;
22470;SDS011;11402;51.374;6.594;2023-03-20T15:39:15;12.55;;;3.88;;
22470;SDS011;11402;51.374;6.594;2023-03-20T15:41:44;12.30;;;3.63;;
22470;SDS011;11402;51.374;6.594;2023-03-20T15:46:40;15.05;;;4.38;;
22470;SDS011;11402;51.374;6.594;2023-03-20T15:49:22;13.43;;;4.20;;
22470;SDS011;11402;51.374;6.594;2023-03-20T15:51:48;12.13;;;3.92;;
22470;SDS011;11402;51.374;6.594;2023-03-20T15:54:15;11.35;;;3.92;;
22470;SDS011;11402;51.374;6.594;2023-03-20T15:56:43;14.27;;;4.13;;
22470;SDS011;11402;51.374;6.594;2023-03-20T15:59:12;11.77;;;4.00;;
22470;SDS011;11402;51.374;6.594;2023-03-20T16:01:41;11.65;;;4.07;;
22470;SDS011;11402;51.374;6.594;2023-03-20T16:04:08;12.50;;;4.55;;
22470;SDS011;11402;51.374;6.594;2023-03-20T16:06:43;13.77;;;3.95;;
22470;SDS011;11402;51.374;6.594;2023-03-20T16:09:15;9.45;;;4.10;;
22470;SDS011;11402;51.374;6.594;2023-03-20T16:11:42;12.57;;;4.28;;
22470;SDS011;11402;51.374;6.594;2023-03-20T16:14:15;11.70;;;4.63;;
22470;SDS011;11402;51.374;6.594;2023-03-20T16:16:46;13.40;;;4.53;;
22470;SDS011;11402;51.374;6.594;2023-03-20T16:19:14;10.57;;;4.25;;
22470;SDS011;11402;51.374;6.594;2023-03-20T16:21:42;11.98;;;3.88;;
22470;SDS011;11402;51.374;6.594;2023-03-20T16:24:21;11.35;;;3.78;;
22470;SDS011;11402;51.374;6.594;2023-03-20T16:26:54;8.57;;;3.67;;
22470;SDS011;11402;51.374;6.594;2023-03-20T16:29:21;9.25;;;4.20;;
22470;SDS011;11402;51.374;6.594;2023-03-20T16:31:51;13.57;;;3.75;;
22470;SDS011;11402;51.374;6.594;2023-03-20T16:34:24;9.73;;;4.43;;
22470;SDS011;11402;51.374;6.594;2023-03-20T16:36:59;11.23;;;3.80;;
22470;SDS011;11402;51.374;6.594;2023-03-20T16:39:32;12.88;;;4.00;;
22470;SDS011;11402;51.374;6.594;2023-03-20T16:44:34;12.00;;;4.03;;
22470;SDS011;11402;51.374;6.594;2023-03-20T16:49:51;11.13;;;3.75;;